St. Margarethen - Festspielgelnde
Wetterdaten: aktuell Sonntag, 19.01.2020 08:15
Datum Zeit Temp. A. Feuchte A. Regen Wind Richtung Richtung Taupunkt Windchill Windben
19.01.2020 08:15 1,8 C 94 % 0,4 l/m 0,0 km/h (0 Bft) W-SW 245 0,9 C 1,8 C 0,0 km/h (0 Bft)
19.01.2020 07:15 1,9 C 93 % 0,0 l/m 4,6 km/h (1 Bft) N-NO 25 0,9 C 1,9 C 11,3 km/h (2 Bft)
19.01.2020 06:16 2,1 C 93 % 0,0 l/m 2,4 km/h (1 Bft) N 8 1,1 C 2,1 C 8,0 km/h (2 Bft)
19.01.2020 05:17 2,0 C 93 % 0,0 l/m 0,5 km/h (0 Bft) W-NW 287 1,0 C 2,0 C 6,4 km/h (2 Bft)
19.01.2020 04:18 1,8 C 94 % 0,0 l/m 2,2 km/h (1 Bft) W-NW 284 0,9 C 1,8 C 8,0 km/h (2 Bft)
19.01.2020 03:19 1,7 C 94 % 0,0 l/m 2,3 km/h (1 Bft) W-NW 283 0,8 C 1,7 C 8,0 km/h (2 Bft)
19.01.2020 02:20 1,2 C 95 % 0,0 l/m 0,0 km/h (0 Bft) NW 307 0,5 C 1,2 C 0,0 km/h (0 Bft)
19.01.2020 01:21 0,9 C 95 % 0,0 l/m 0,0 km/h (0 Bft) W 279 0,2 C 0,9 C 0,0 km/h (0 Bft)
19.01.2020 00:21 0,3 C 95 % 0,0 l/m 0,0 km/h (0 Bft) NW 311 -0,4 C 0,3 C 0,0 km/h (0 Bft)
18.01.2020 23:22 -0,2 C 95 % 0,0 l/m 0,0 km/h (0 Bft) N-NW 346 -0,9 C -0,2 C 0,0 km/h (0 Bft)
18.01.2020 22:23 -0,6 C 95 % 0,0 l/m 0,0 km/h (0 Bft) W-SW 240 -1,3 C -0,6 C 0,0 km/h (0 Bft)
18.01.2020 21:24 -1,1 C 95 % 0,0 l/m 0,0 km/h (0 Bft) W-SW 253 -1,8 C -1,1 C 0,0 km/h (0 Bft)
18.01.2020 20:25 -1,4 C 95 % 0,0 l/m 0,0 km/h (0 Bft) W-SW 250 -2,1 C -1,4 C 0,0 km/h (0 Bft)
18.01.2020 19:26 -1,3 C 95 % 0,0 l/m 0,0 km/h (0 Bft) W-SW 242 -2,0 C -1,3 C 0,0 km/h (0 Bft)
18.01.2020 18:27 -1,3 C 95 % 0,0 l/m 0,0 km/h (0 Bft) O-NO 68 -2,0 C -1,3 C 0,0 km/h (0 Bft)
18.01.2020 17:27 -1,5 C 95 % 0,0 l/m 0,0 km/h (0 Bft) O-NO 68 -2,2 C -1,5 C 0,0 km/h (0 Bft)
18.01.2020 16:28 -1,6 C 95 % 0,0 l/m 0,0 km/h (0 Bft) NW 321 -2,3 C -1,6 C 0,0 km/h (0 Bft)
18.01.2020 15:29 -1,6 C 95 % 0,0 l/m 0,0 km/h (0 Bft) O-NO 71 -2,3 C -1,6 C 0,0 km/h (0 Bft)
18.01.2020 14:30 -1,6 C 95 % 0,0 l/m 0,0 km/h (0 Bft) O-NO 75 -2,3 C -1,6 C 0,0 km/h (0 Bft)
18.01.2020 13:31 -1,6 C 95 % 0,0 l/m 0,0 km/h (0 Bft) O-NO 65 -2,3 C -1,6 C 0,0 km/h (0 Bft)
18.01.2020 12:32 -1,4 C 95 % 0,0 l/m 0,0 km/h (0 Bft) NO 43 -2,1 C -1,4 C 0,0 km/h (0 Bft)
18.01.2020 11:33 -1,4 C 95 % 0,0 l/m 0,0 km/h (0 Bft) NO 36 -2,1 C -1,4 C 0,0 km/h (0 Bft)
18.01.2020 10:34 -1,6 C 95 % 0,0 l/m 0,0 km/h (0 Bft) O-NO 77 -2,3 C -1,6 C 0,0 km/h (0 Bft)
18.01.2020 09:35 -1,4 C 95 % 0,0 l/m 0,0 km/h (0 Bft) O-NO 62 -2,1 C -1,4 C 0,0 km/h (0 Bft)
18.01.2020 09:00 -1,5 C 95 % 0,0 l/m 0,0 km/h (0 Bft) O 87 -2,2 C -1,5 C 0,0 km/h (0 Bft)
_ Min-Zeit 14:01 04:23 - 09:00 - - 09:44 09:44 09:00
Minimum _ -1,7 C 93 % - 0,0 km/h (0 Bft) - - -2,3 C -1,6 C 0,0 km/h (0 Bft)
_ Max-Zeit 06:26 09:00 07:32 05:54 - - 06:26 06:26 05:12
Maximum _ 2,2 C 95 % 0,2 l/m 8,2 km/h
NW (2 Bft)
- - 1,2 C 2,2 C 16,1 km/h
W-NW (3 Bft)
Durchschnitt _ -0,4 C 95 % #0,4 l/m 0,4 km/h (0 Bft) NW - -1,1 C -0,4 C 1,3 km/h (1 Bft)